createdAt,value
2023-08-21T00:02:16.810Z,100951.34
2023-08-21T00:04:44.009Z,100956.63
2023-08-21T00:07:12.654Z,100958.63
2023-08-21T00:09:39.894Z,100954.28
2023-08-21T00:12:07.566Z,100955.22
2023-08-21T00:14:34.842Z,100953.63
2023-08-21T00:17:04.384Z,100941.53
2023-08-21T00:19:32.141Z,100948.25
2023-08-21T00:21:59.278Z,100946.50
2023-08-21T00:24:26.530Z,100953.38
2023-08-21T00:26:53.566Z,100942.97
2023-08-21T00:29:20.820Z,100941.38
2023-08-21T00:31:48.116Z,100924.16
2023-08-21T00:34:15.759Z,100941.69
2023-08-21T00:36:42.967Z,100935.63
2023-08-21T00:39:10.048Z,100940.91
2023-08-21T00:41:37.243Z,100941.84
2023-08-21T00:44:05.307Z,100933.16
2023-08-21T00:46:33.581Z,100940.28
2023-08-21T00:49:01.190Z,100940.28
2023-08-21T00:51:28.572Z,100911.25
2023-08-21T00:53:55.897Z,100942.28
2023-08-21T00:56:23.109Z,100952.41
2023-08-21T00:58:50.595Z,100954.69
2023-08-21T01:01:20.386Z,100960.94
2023-08-21T01:03:47.916Z,100962.59
2023-08-21T01:06:14.976Z,100966.75
2023-08-21T01:09:13.126Z,100958.03
2023-08-21T01:12:06.074Z,100968.22
2023-08-21T01:14:44.830Z,100964.88
2023-08-21T01:17:17.109Z,100947.75
2023-08-21T01:19:47.399Z,100969.88
2023-08-21T01:22:14.779Z,100957.53
2023-08-21T01:24:41.938Z,100967.16
2023-08-21T01:27:10.463Z,100968.22
2023-08-21T01:29:38.449Z,100960.53
2023-08-21T01:32:11.253Z,100968.09
2023-08-21T01:34:40.455Z,100972.34
2023-08-21T01:37:09.475Z,100970.63
2023-08-21T01:39:36.752Z,100963.66
2023-08-21T01:42:05.977Z,100968.09
2023-08-21T01:44:33.370Z,100956.97
2023-08-21T01:47:03.096Z,100964.66
2023-08-21T01:49:30.291Z,100964.88
2023-08-21T01:51:57.497Z,100966.22
2023-08-21T01:54:26.241Z,100961.09
2023-08-21T01:56:53.313Z,100964.78
2023-08-21T01:59:21.457Z,100930.56
2023-08-21T02:01:48.694Z,100955.44
2023-08-21T02:04:15.857Z,100948.41
2023-08-21T02:06:43.125Z,100945.97
2023-08-21T02:09:10.237Z,100942.56
2023-08-21T02:11:37.436Z,100927.31
2023-08-21T02:16:31.907Z,100952.38
2023-08-21T02:18:59.254Z,100948.09
2023-08-21T02:21:26.498Z,100947.59
2023-08-21T02:23:53.708Z,100958.13
2023-08-21T02:26:21.452Z,100962.88
2023-08-21T02:28:48.585Z,100955.13
2023-08-21T02:31:15.701Z,100955.03
2023-08-21T02:33:42.886Z,100940.25
2023-08-21T02:36:10.005Z,100945.50
2023-08-21T02:38:37.304Z,100923.69
2023-08-21T02:41:04.977Z,100904.09
2023-08-21T02:43:32.088Z,100930.00
2023-08-21T02:45:59.316Z,100937.94
2023-08-21T02:48:26.588Z,100937.22
2023-08-21T02:50:54.887Z,100936.59
2023-08-21T02:53:22.055Z,100943.34
2023-08-21T02:55:49.291Z,100944.22
2023-08-21T02:58:16.520Z,100936.72
2023-08-21T03:00:44.228Z,100949.69
2023-08-21T03:03:12.570Z,100942.78
2023-08-21T03:05:39.790Z,100926.78
2023-08-21T03:08:07.731Z,100951.09
2023-08-21T03:10:35.712Z,100953.94
2023-08-21T03:13:02.893Z,100948.94
2023-08-21T03:15:30.415Z,100953.81
2023-08-21T03:17:57.566Z,100968.53
2023-08-21T03:20:25.041Z,100972.94
2023-08-21T03:22:52.171Z,100977.50
2023-08-21T03:25:19.475Z,100979.47
2023-08-21T03:27:50.603Z,100988.50
2023-08-21T03:30:18.328Z,100971.44
2023-08-21T03:32:45.827Z,100993.25
2023-08-21T03:35:13.132Z,101001.25
2023-08-21T03:37:43.261Z,100994.44
2023-08-21T03:40:13.769Z,100977.31
2023-08-21T03:42:41.870Z,100994.56
2023-08-21T03:45:09.508Z,101000.03
2023-08-21T03:47:36.785Z,100993.06
2023-08-21T03:50:11.406Z,100997.63
2023-08-21T03:52:38.714Z,100977.78
2023-08-21T03:55:06.171Z,100986.34
2023-08-21T03:57:33.286Z,100993.34
2023-08-21T04:00:00.375Z,100988.78
2023-08-21T04:02:27.881Z,100991.59
2023-08-21T04:04:55.041Z,100984.78
2023-08-21T04:07:22.235Z,100984.78
2023-08-21T04:09:49.398Z,100981.34
2023-08-21T04:12:16.529Z,100982.94
2023-08-21T04:14:43.769Z,100986.47
2023-08-21T04:17:10.841Z,100987.53
2023-08-21T04:19:38.637Z,100985.00
2023-08-21T04:22:05.847Z,100977.22
2023-08-21T04:24:33.046Z,100976.22
2023-08-21T04:27:00.128Z,100976.09
2023-08-21T04:29:27.257Z,100958.91
2023-08-21T04:31:55.133Z,100984.66
2023-08-21T04:34:22.208Z,100976.63
2023-08-21T04:36:50.550Z,100980.19
2023-08-21T04:39:18.258Z,100979.25
2023-08-21T04:41:46.648Z,100975.69
2023-08-21T04:44:13.820Z,100985.38
2023-08-21T04:46:40.927Z,100976.94
2023-08-21T04:49:08.243Z,100993.56
2023-08-21T04:51:35.817Z,100995.28
2023-08-21T04:54:04.202Z,100988.19
2023-08-21T04:56:32.079Z,100991.84
2023-08-21T04:58:59.682Z,100997.84
2023-08-21T05:01:29.085Z,100996.00
2023-08-21T05:03:58.180Z,101000.16
2023-08-21T05:06:25.602Z,101000.03
2023-08-21T05:08:52.657Z,101003.22
2023-08-21T05:11:20.400Z,100999.56
2023-08-21T05:13:47.478Z,101003.84
2023-08-21T05:16:16.473Z,101011.50
2023-08-21T05:18:43.820Z,100992.34
2023-08-21T05:21:10.948Z,101004.28
2023-08-21T05:23:38.110Z,101012.00
2023-08-21T05:26:08.251Z,101009.44
2023-08-21T05:28:35.356Z,101013.72
2023-08-21T05:31:02.528Z,101019.84
2023-08-21T05:33:40.445Z,101014.47
2023-08-21T05:36:07.625Z,101017.00
2023-08-21T05:38:34.941Z,101021.28
2023-08-21T05:41:02.373Z,101019.59
2023-08-21T05:43:29.938Z,101029.84
2023-08-21T05:45:58.343Z,101004.16
2023-08-21T05:48:25.503Z,101026.06
2023-08-21T05:50:53.496Z,101026.28
2023-08-21T05:53:21.127Z,101022.50
2023-08-21T05:55:48.422Z,101014.41
2023-08-21T05:58:16.558Z,101026.31
2023-08-21T06:00:45.733Z,101025.09
2023-08-21T06:03:13.097Z,101019.50
2023-08-21T06:06:12.640Z,101007.13
2023-08-21T06:08:40.727Z,101011.09
2023-08-21T06:11:07.915Z,101002.78
2023-08-21T06:13:35.052Z,100998.44
2023-08-21T06:16:02.875Z,101005.91
2023-08-21T06:18:31.613Z,101022.94
2023-08-21T06:20:58.902Z,101035.47
2023-08-21T06:23:26.080Z,101034.13
2023-08-21T06:25:53.228Z,101029.41
2023-08-21T06:28:22.620Z,101026.38
2023-08-21T06:30:57.603Z,101035.25
2023-08-21T06:33:24.957Z,101042.72
2023-08-21T06:35:52.214Z,101028.75
2023-08-21T06:38:19.405Z,101037.16
2023-08-21T06:40:47.675Z,101036.56
2023-08-21T06:43:14.942Z,101044.69
2023-08-21T06:45:47.368Z,101032.28
2023-08-21T06:48:15.530Z,101042.84
2023-08-21T06:50:42.852Z,101038.03
2023-08-21T06:53:09.940Z,101039.28
2023-08-21T06:55:37.527Z,101041.31
2023-08-21T06:58:05.012Z,101033.69
2023-08-21T07:00:32.282Z,101040.28
2023-08-21T07:02:59.728Z,101028.25
2023-08-21T07:05:26.998Z,101034.69
2023-08-21T07:07:55.723Z,101037.50
2023-08-21T07:10:23.109Z,101037.34
2023-08-21T07:12:50.347Z,101042.16
2023-08-21T07:15:17.612Z,101045.72
2023-08-21T07:17:44.787Z,101049.38
2023-08-21T07:20:12.465Z,101049.38
2023-08-21T07:22:40.048Z,101048.44
2023-08-21T07:25:07.819Z,101044.88
2023-08-21T07:27:35.081Z,101043.34
2023-08-21T07:30:02.263Z,101048.97
2023-08-21T07:32:29.511Z,101055.63
2023-08-21T07:34:56.779Z,101041.28
2023-08-21T07:37:23.961Z,101050.56
2023-08-21T07:39:51.119Z,101051.00
2023-08-21T07:42:18.499Z,101038.34
2023-08-21T07:44:47.300Z,101022.72
2023-08-21T07:47:14.501Z,101036.28
2023-08-21T07:49:41.730Z,101038.56
2023-08-21T07:52:08.922Z,101025.28
2023-08-21T07:54:36.138Z,101037.19
2023-08-21T07:57:05.238Z,101036.44
2023-08-21T07:59:32.384Z,101036.81
2023-08-21T08:02:01.948Z,101034.72
2023-08-21T08:04:29.617Z,101031.66
2023-08-21T08:06:57.031Z,101037.09
2023-08-21T08:09:24.240Z,101036.31
2023-08-21T08:11:51.339Z,101032.69
2023-08-21T08:14:18.458Z,101015.91
2023-08-21T08:16:45.766Z,101024.66
2023-08-21T08:19:12.860Z,101026.31
2023-08-21T08:21:40.182Z,101016.25
2023-08-21T08:24:07.540Z,101029.22
2023-08-21T08:26:34.750Z,101031.34
2023-08-21T08:29:01.977Z,101033.25
2023-08-21T08:31:29.430Z,101035.38
2023-08-21T08:33:56.631Z,101032.94
2023-08-21T08:36:23.879Z,101038.81
2023-08-21T08:38:51.214Z,101039.34
2023-08-21T08:41:34.610Z,101034.75
2023-08-21T08:44:03.968Z,101030.72
2023-08-21T08:46:32.022Z,101029.91
2023-08-21T08:49:01.445Z,101035.41
2023-08-21T08:51:31.973Z,101015.94
2023-08-21T08:54:00.393Z,101033.72
2023-08-21T08:56:27.834Z,101031.75
2023-08-21T08:58:55.183Z,101029.84
2023-08-21T09:01:22.501Z,101015.81
2023-08-21T09:03:51.597Z,101032.16
2023-08-21T09:06:18.762Z,101024.47
2023-08-21T09:08:56.426Z,101028.94
2023-08-21T09:11:24.389Z,101038.91
2023-08-21T09:13:52.570Z,101024.88
2023-08-21T09:16:20.681Z,101030.34
2023-08-21T09:18:49.397Z,101022.41
2023-08-21T09:21:24.518Z,101026.91
2023-08-21T09:23:58.569Z,101017.56
2023-08-21T09:26:26.159Z,101011.66
2023-08-21T09:28:54.354Z,101015.13
2023-08-21T09:31:25.663Z,101019.28
2023-08-21T09:34:01.984Z,101014.25
2023-08-21T09:36:29.899Z,101014.28
2023-08-21T09:38:57.023Z,101009.31
2023-08-21T09:41:25.559Z,101008.00
2023-08-21T09:43:53.062Z,101007.50
2023-08-21T09:46:27.687Z,101009.84
2023-08-21T09:48:55.414Z,101006.22
2023-08-21T09:51:22.637Z,101003.69
2023-08-21T09:53:51.252Z,101000.09
2023-08-21T09:56:21.544Z,100994.50
2023-08-21T09:58:52.568Z,101003.59
2023-08-21T10:01:23.185Z,101003.22
2023-08-21T10:03:50.604Z,101003.72
2023-08-21T10:06:23.013Z,101002.84
2023-08-21T10:08:54.792Z,101003.22
2023-08-21T10:11:22.855Z,101001.50
2023-08-21T10:13:54.208Z,100996.41
2023-08-21T10:16:24.321Z,100980.41
2023-08-21T10:18:51.465Z,101002.00
2023-08-21T10:21:22.006Z,101008.31
2023-08-21T10:23:52.804Z,100998.84
2023-08-21T10:26:22.253Z,100997.28
2023-08-21T10:29:04.331Z,100993.63
2023-08-21T10:31:33.043Z,100993.75
2023-08-21T10:34:02.387Z,100991.31
2023-08-21T10:37:01.464Z,100981.06
2023-08-21T10:39:33.651Z,100996.31
2023-08-21T10:42:11.126Z,100993.84
2023-08-21T10:45:07.056Z,100993.91
2023-08-21T10:47:36.897Z,100996.78
2023-08-21T10:50:08.640Z,100993.16
2023-08-21T10:52:43.433Z,100998.69
2023-08-21T10:55:11.285Z,100994.34
2023-08-21T10:57:39.406Z,101001.03
2023-08-21T11:00:12.816Z,100988.69
2023-08-21T11:02:43.792Z,100990.84
2023-08-21T11:05:12.209Z,100995.81
2023-08-21T11:07:40.862Z,100992.16
2023-08-21T11:10:12.886Z,100992.53
2023-08-21T11:12:50.229Z,100998.47
2023-08-21T11:15:20.108Z,100990.34
2023-08-21T11:18:14.633Z,100985.59
2023-08-21T11:20:44.344Z,100984.50
2023-08-21T11:23:11.626Z,100988.16
2023-08-21T11:25:42.209Z,100980.16
2023-08-21T11:28:09.898Z,100962.19
2023-08-21T11:30:37.665Z,100980.38
2023-08-21T11:33:12.861Z,100978.69
2023-08-21T11:35:40.715Z,100969.50
2023-08-21T11:38:15.128Z,100982.84
2023-08-21T11:40:42.251Z,100977.97
2023-08-21T11:43:10.679Z,100964.16
2023-08-21T11:45:53.102Z,100972.38
2023-08-21T11:48:24.493Z,100981.50
2023-08-21T11:50:51.841Z,100961.00
2023-08-21T11:53:36.038Z,100958.44
2023-08-21T11:56:03.867Z,100968.78
2023-08-21T11:58:31.401Z,100967.53
2023-08-21T12:01:05.685Z,100963.66
2023-08-21T12:03:38.468Z,100963.19
2023-08-21T12:06:10.383Z,100963.56
2023-08-21T12:08:38.025Z,100964.31
2023-08-21T12:11:05.118Z,100968.31
2023-08-21T12:13:35.483Z,100962.94
2023-08-21T12:16:03.407Z,100962.44
2023-08-21T12:18:30.648Z,100958.94
2023-08-21T12:20:58.791Z,100947.47
2023-08-21T12:23:26.319Z,100955.34
2023-08-21T12:25:53.443Z,100956.88
2023-08-21T12:28:20.683Z,100955.41
2023-08-21T12:30:48.503Z,100957.09
2023-08-21T12:33:23.157Z,100951.78
2023-08-21T12:35:52.197Z,100954.56
2023-08-21T12:38:19.648Z,100962.19
2023-08-21T12:40:46.752Z,100949.59
2023-08-21T12:43:13.966Z,100945.94
2023-08-21T12:45:41.740Z,100945.69
2023-08-21T12:48:09.789Z,100956.00
2023-08-21T12:50:37.186Z,100956.03
2023-08-21T12:53:04.573Z,100956.28
2023-08-21T12:55:32.272Z,100934.97
2023-08-21T12:57:59.579Z,100941.31
2023-08-21T13:00:26.824Z,100942.28
2023-08-21T13:02:54.401Z,100930.63
2023-08-21T13:05:21.744Z,100930.94
2023-08-21T13:07:50.246Z,100931.28
2023-08-21T13:10:17.421Z,100934.53
2023-08-21T13:12:45.089Z,100934.28
2023-08-21T13:15:12.335Z,100944.31
2023-08-21T13:17:39.763Z,100934.22
2023-08-21T13:20:07.666Z,100938.66
2023-08-21T13:22:52.864Z,100936.88
2023-08-21T13:25:23.946Z,100933.69
2023-08-21T13:27:52.241Z,100925.31
2023-08-21T13:30:19.708Z,100930.25
2023-08-21T13:32:46.930Z,100928.78
2023-08-21T13:35:14.250Z,100919.03
2023-08-21T13:37:41.723Z,100919.22
2023-08-21T13:40:13.869Z,100921.81
2023-08-21T13:42:45.581Z,100920.75
2023-08-21T13:45:14.412Z,100902.09
2023-08-21T13:47:43.628Z,100925.88
2023-08-21T13:50:11.973Z,100915.16
2023-08-21T13:52:41.212Z,100922.81
2023-08-21T13:55:10.178Z,100924.19
2023-08-21T13:57:40.574Z,100919.53
2023-08-21T14:00:12.976Z,100919.94
2023-08-21T14:02:43.837Z,100926.59
2023-08-21T14:05:12.389Z,100921.72
2023-08-21T14:07:41.436Z,100917.56
2023-08-21T14:10:10.055Z,100913.44
2023-08-21T14:12:39.119Z,100914.19
2023-08-21T14:15:09.427Z,100913.97
2023-08-21T14:17:36.970Z,100913.75
2023-08-21T14:20:05.614Z,100904.81
2023-08-21T14:22:33.216Z,100889.09
2023-08-21T14:25:00.467Z,100899.41
2023-08-21T14:27:27.710Z,100898.91
2023-08-21T14:29:54.867Z,100895.50
2023-08-21T14:32:22.213Z,100898.69
2023-08-21T14:34:49.383Z,100898.69
2023-08-21T14:37:17.217Z,100896.78
2023-08-21T14:39:44.749Z,100886.78
2023-08-21T14:42:12.494Z,100887.63
2023-08-21T14:44:39.698Z,100887.53
2023-08-21T14:47:08.921Z,100884.97
2023-08-21T14:49:36.283Z,100884.66
2023-08-21T14:52:04.462Z,100873.19
2023-08-21T14:54:31.743Z,100869.16
2023-08-21T14:56:58.982Z,100879.34
2023-08-21T14:59:26.495Z,100876.69
2023-08-21T15:01:53.813Z,100875.53
2023-08-21T15:04:20.981Z,100873.63
2023-08-21T15:06:48.256Z,100875.34
2023-08-21T15:09:15.501Z,100870.03
2023-08-21T15:11:42.670Z,100853.00
2023-08-21T15:14:13.304Z,100867.69
2023-08-21T15:16:40.791Z,100858.97
2023-08-21T15:19:08.216Z,100857.47
2023-08-21T15:21:35.508Z,100856.94
2023-08-21T15:24:05.314Z,100857.47
2023-08-21T15:26:32.786Z,100858.75
2023-08-21T15:29:01.680Z,100849.81
2023-08-21T15:31:28.936Z,100846.19
2023-08-21T15:33:56.283Z,100840.88
2023-08-21T15:36:23.534Z,100844.81
2023-08-21T15:38:50.916Z,100835.88
2023-08-21T15:41:18.090Z,100839.59
2023-08-21T15:43:45.272Z,100816.03
2023-08-21T15:46:12.671Z,100831.53
2023-08-21T15:48:40.154Z,100834.09
2023-08-21T15:51:07.440Z,100841.09
2023-08-21T15:53:34.817Z,100820.91
2023-08-21T15:56:02.013Z,100819.44
2023-08-21T15:58:29.576Z,100829.94
2023-08-21T16:00:58.963Z,100827.50
2023-08-21T16:03:26.285Z,100819.44
2023-08-21T16:05:53.571Z,100816.78
2023-08-21T16:08:21.141Z,100814.56
2023-08-21T16:10:48.278Z,100825.38
2023-08-21T16:13:15.705Z,100824.50
2023-08-21T16:15:42.952Z,100812.84
2023-08-21T16:18:11.419Z,100812.44
2023-08-21T16:20:39.089Z,100806.16
2023-08-21T16:23:07.775Z,100807.34
2023-08-21T16:25:35.477Z,100812.75
2023-08-21T16:28:02.830Z,100817.94
2023-08-21T16:30:30.405Z,100817.50
2023-08-21T16:32:57.977Z,100819.63
2023-08-21T16:35:26.605Z,100798.97
2023-08-21T16:37:53.970Z,100813.00
2023-08-21T16:40:21.359Z,100818.09
2023-08-21T16:42:48.792Z,100818.88
2023-08-21T16:45:17.373Z,100814.50
2023-08-21T16:47:46.713Z,100814.69
2023-08-21T16:50:15.086Z,100811.09
2023-08-21T16:52:42.568Z,100814.81
2023-08-21T16:55:10.339Z,100820.41
2023-08-21T16:57:37.818Z,100806.81
2023-08-21T17:00:11.254Z,100807.88
2023-08-21T17:02:40.763Z,100810.59
2023-08-21T17:05:09.268Z,100809.53
2023-08-21T17:07:39.485Z,100818.44
2023-08-21T17:10:12.001Z,100806.56
2023-08-21T17:12:39.600Z,100816.50
2023-08-21T17:15:08.535Z,100803.56
2023-08-21T17:17:35.752Z,100818.09
2023-08-21T17:20:06.587Z,100820.75
2023-08-21T17:22:33.832Z,100813.84
2023-08-21T17:25:12.736Z,100821.78
2023-08-21T17:27:41.987Z,100816.81
2023-08-21T17:30:10.024Z,100812.84
2023-08-21T17:32:37.819Z,100821.75
2023-08-21T17:35:05.947Z,100816.84
2023-08-21T17:37:33.183Z,100824.22
2023-08-21T17:40:01.180Z,100821.03
2023-08-21T17:42:28.399Z,100810.63
2023-08-21T17:44:56.296Z,100830.50
2023-08-21T17:47:23.723Z,100827.56
2023-08-21T17:49:51.704Z,100834.88
2023-08-21T17:52:18.892Z,100836.13
2023-08-21T17:54:46.298Z,100834.78
2023-08-21T17:57:14.403Z,100834.34
2023-08-21T17:59:41.603Z,100833.97
2023-08-21T18:02:11.353Z,100845.66
2023-08-21T18:04:43.022Z,100850.66
2023-08-21T18:07:10.278Z,100850.38
2023-08-21T18:09:38.017Z,100848.19
2023-08-21T18:12:05.834Z,100859.22
2023-08-21T18:14:33.104Z,100862.25
2023-08-21T18:17:04.780Z,100867.91
2023-08-21T18:19:44.801Z,100862.97
2023-08-21T18:22:14.244Z,100865.41
2023-08-21T18:24:41.486Z,100879.38
2023-08-21T18:27:08.679Z,100869.34
2023-08-21T18:29:39.706Z,100871.03
2023-08-21T18:32:11.073Z,100877.34
2023-08-21T18:34:39.463Z,100880.38
2023-08-21T18:37:09.102Z,100882.16
2023-08-21T18:39:36.456Z,100885.88
2023-08-21T18:42:03.892Z,100884.38
2023-08-21T18:44:31.269Z,100892.47
2023-08-21T18:46:59.768Z,100888.47
2023-08-21T18:49:27.267Z,100884.31
2023-08-21T18:51:55.176Z,100891.34
2023-08-21T18:54:25.246Z,100889.72
2023-08-21T18:56:53.723Z,100887.28
2023-08-21T18:59:21.025Z,100890.03
2023-08-21T19:01:48.292Z,100887.81
2023-08-21T19:04:15.494Z,100894.78
2023-08-21T19:06:51.937Z,100896.69
2023-08-21T19:09:27.663Z,100902.28
2023-08-21T19:11:54.826Z,100902.47
2023-08-21T19:14:22.017Z,100898.53
2023-08-21T19:16:53.657Z,100910.19
2023-08-21T19:19:23.439Z,100913.09
2023-08-21T19:21:52.203Z,100910.78
2023-08-21T19:24:23.770Z,100910.91
2023-08-21T19:26:53.873Z,100909.63
2023-08-21T19:29:25.803Z,100907.31
2023-08-21T19:31:56.048Z,100924.34
2023-08-21T19:34:24.758Z,100907.44
2023-08-21T19:36:56.162Z,100923.28
2023-08-21T19:39:24.108Z,100914.06
2023-08-21T19:44:37.521Z,100918.63
2023-08-21T19:47:06.563Z,100919.63
2023-08-21T19:52:25.517Z,100921.44
2023-08-21T19:54:57.204Z,100913.16
2023-08-21T19:57:31.639Z,100912.22
2023-08-21T20:00:00.321Z,100914.31
2023-08-21T20:02:30.724Z,100916.00
2023-08-21T20:05:02.098Z,100925.94
2023-08-21T20:07:30.920Z,100914.91
2023-08-21T20:10:01.799Z,100931.44
2023-08-21T20:12:34.409Z,100935.84
2023-08-21T20:15:06.122Z,100925.44
2023-08-21T20:17:34.357Z,100930.78
2023-08-21T20:20:03.076Z,100936.16
2023-08-21T20:22:33.233Z,100929.63
2023-08-21T20:25:01.836Z,100941.03
2023-08-21T20:27:29.339Z,100936.75
2023-08-21T20:29:56.518Z,100937.91
2023-08-21T20:32:24.058Z,100947.41
2023-08-21T20:34:51.332Z,100952.06
2023-08-21T20:37:18.537Z,100954.28
2023-08-21T20:39:45.856Z,100952.09
2023-08-21T20:42:13.120Z,100957.66
2023-08-21T20:44:40.892Z,100949.97
2023-08-21T20:47:08.173Z,100957.94
2023-08-21T20:49:36.484Z,100959.66
2023-08-21T20:52:04.768Z,100947.84
2023-08-21T20:54:32.977Z,100961.38
2023-08-21T20:57:00.124Z,100965.84
2023-08-21T20:59:27.308Z,100972.22
2023-08-21T21:01:54.540Z,100955.75
2023-08-21T21:04:21.663Z,100971.56
2023-08-21T21:06:49.942Z,100964.75
2023-08-21T21:09:16.975Z,100967.44
2023-08-21T21:11:44.309Z,100967.66
2023-08-21T21:14:11.503Z,100968.06
2023-08-21T21:16:41.334Z,100967.47
2023-08-21T21:19:08.650Z,100968.50
2023-08-21T21:21:36.096Z,100970.34
2023-08-21T21:24:03.385Z,100974.16
2023-08-21T21:26:30.639Z,100979.72
2023-08-21T21:28:57.801Z,100976.44
2023-08-21T21:31:25.049Z,100980.09
2023-08-21T21:33:53.943Z,100976.84
2023-08-21T21:36:21.223Z,100980.53
2023-08-21T21:38:48.391Z,100978.84
2023-08-21T21:41:15.602Z,100949.88
2023-08-21T21:43:43.541Z,100977.94
2023-08-21T21:46:15.825Z,100983.81
2023-08-21T21:48:43.185Z,100973.94
2023-08-21T21:51:10.876Z,100969.97
2023-08-21T21:53:38.142Z,100974.69
2023-08-21T21:56:05.653Z,100986.22
2023-08-21T21:58:32.888Z,100969.97
2023-08-21T22:01:00.351Z,100978.66
2023-08-21T22:03:28.394Z,100980.72
2023-08-21T22:05:56.534Z,100975.91
2023-08-21T22:08:24.735Z,100977.91
2023-08-21T22:10:53.356Z,100979.72
2023-08-21T22:13:21.491Z,100979.16
2023-08-21T22:15:48.634Z,100978.50
2023-08-21T22:18:16.724Z,100979.59
2023-08-21T22:20:45.387Z,100977.16
2023-08-21T22:23:12.537Z,100982.28
2023-08-21T22:25:40.141Z,100982.03
2023-08-21T22:28:07.347Z,100983.75
2023-08-21T22:30:34.432Z,100976.09
2023-08-21T22:33:01.654Z,100982.28
2023-08-21T22:35:28.891Z,100990.97
2023-08-21T22:37:56.007Z,100987.03
2023-08-21T22:40:26.706Z,100974.81
2023-08-21T22:42:54.008Z,100989.28
2023-08-21T22:45:21.668Z,100991.31
2023-08-21T22:47:49.055Z,100977.03
2023-08-21T22:50:16.449Z,100981.84
2023-08-21T22:52:43.688Z,100981.41
2023-08-21T22:55:11.371Z,100983.47
2023-08-21T22:57:41.131Z,100975.69
2023-08-21T23:00:11.246Z,100983.50
2023-08-21T23:02:38.767Z,100981.13
2023-08-21T23:05:07.019Z,100984.53
2023-08-21T23:07:35.254Z,100983.78
2023-08-21T23:10:03.164Z,100977.97
2023-08-21T23:12:30.561Z,100978.34
2023-08-21T23:14:58.231Z,100978.53
2023-08-21T23:17:25.760Z,100988.97
2023-08-21T23:19:53.421Z,100985.72
2023-08-21T23:22:21.007Z,100978.13
2023-08-21T23:24:48.472Z,100979.97
2023-08-21T23:27:15.830Z,100962.03
2023-08-21T23:29:43.052Z,100977.59
2023-08-21T23:32:10.597Z,100971.69
2023-08-21T23:34:37.918Z,100980.72
2023-08-21T23:37:05.631Z,100979.09
2023-08-21T23:39:32.978Z,100973.97
2023-08-21T23:42:00.458Z,100969.13
2023-08-21T23:44:27.828Z,100981.13
2023-08-21T23:46:55.105Z,100977.50
2023-08-21T23:49:22.488Z,100972.28
2023-08-21T23:51:49.793Z,100973.84
2023-08-21T23:54:17.174Z,100967.41
2023-08-21T23:56:44.617Z,100963.06
2023-08-21T23:59:11.871Z,100975.25
